Dewittville, NY

1:25 PM EST on November 13, 2019 (GMT -0500)
Maple Springs | | Change Station

Elev 1312 ft 42.20 °N, 79.42 °W | Updated 9 minutes ago

Overcast
Overcast
27.1 °F
Feels Like 27 °F
N
0
Wind Variable Wind from WSW
Gusts 7.0 mph

Today
High -- | Low -- °F
--% Chance of Precip.
Yesterday
High -- | Low -- °F
Precip. -- in
Pressure 30.39 in
Visibility 5.0 miles
Clouds Few 1500 ft
Mostly Cloudy 2000 ft
Overcast 3900 ft
Windchill 27 °F
Dew Point 21 °F
Humidity 76%
Rainfall 0.00 in
Snow Depth Not available.
7:05 AM 4:57 PM
Full, 99% visible
METAR KJHW 131756Z AUTO 23006KT 5SM -SN FEW015 BKN020 OVC039 M04/M08 A3029 RMK AO2 SLP290 P0000 60000 T10441078 11011 21078 58003 FZRANO
Pressure 30.39 in
Visibility 5.0 miles
Clouds Few 1500 ft
Mostly Cloudy 2000 ft
Overcast 3900 ft
Windchill 27 °F
Dew Point 21 °F
Humidity 76%
Rainfall 0.00 in
Snow Depth Not available.
7:05 AM 4:57 PM
Full, 99% visible
METAR KJHW 131756Z AUTO 23006KT 5SM -SN FEW015 BKN020 OVC039 M04/M08 A3029 RMK AO2 SLP290 P0000 60000 T10441078 11011 21078 58003 FZRANO

Get Severe Weather Alerts

Thanks for signing up!

Be on the lookout for a verification email in your inbox.

You'll start receiving the daily forecast at 6 AM.

×

10-Day Weather Forecast

Almanac

Astronomy

Nov. 13, 2019 Rise Set
Actual Time
Civil Twilight
Nautical Twilight
Astronomical Twilight
Moon
Length of Visible Light
Length of Day
Tomorrow will be .
, % of the Moon is Illuminated

Today's Extremes

State Highs State Lows

Community

WunderPhotos

Category 6

Welcome to Category 6. This is the collective home for Weather Underground's featured writeups by Dr. Jeff Masters (right), Bob Henson (left), Chris Burt, and other regular contributors.

Nearby

Air Quality

  Air Quality AQ Index Pollutant
Not available.

Snow Depth

Station Depth Elevation

Earthquake Activity

City Distance Mag. Time & Date
Minimum magnitude displayed is 2.5.

Coastal Water Temperatures

Place Temperature

Stations

Nearby Weather Stations

Station Location Temp. Windchill Dew Point Humidity Wind Precip. Elev Updated Type
                   

Watches & Warnings

There are currently no watches in effect.